sensor_id;sensor_type;location;lat;lon;timestamp;P1;durP1;ratioP1;P2;durP2;ratioP2
62179;SDS011;48172;53.374;10.722;2022-08-03T00:00:23;2.45;;;1.60;;
62179;SDS011;48172;53.374;10.722;2022-08-03T00:02:51;2.15;;;1.40;;
62179;SDS011;48172;53.374;10.722;2022-08-03T00:05:18;1.50;;;1.40;;
62179;SDS011;48172;53.374;10.722;2022-08-03T00:07:45;2.47;;;1.42;;
62179;SDS011;48172;53.374;10.722;2022-08-03T00:10:13;1.73;;;1.48;;
62179;SDS011;48172;53.374;10.722;2022-08-03T00:12:40;1.40;;;1.27;;
62179;SDS011;48172;53.374;10.722;2022-08-03T00:15:06;2.03;;;1.30;;
62179;SDS011;48172;53.374;10.722;2022-08-03T00:17:41;2.05;;;1.60;;
62179;SDS011;48172;53.374;10.722;2022-08-03T00:20:22;1.80;;;1.35;;
62179;SDS011;48172;53.374;10.722;2022-08-03T00:22:50;1.67;;;1.40;;
62179;SDS011;48172;53.374;10.722;2022-08-03T00:25:16;1.65;;;1.40;;
62179;SDS011;48172;53.374;10.722;2022-08-03T00:27:43;1.80;;;1.52;;
62179;SDS011;48172;53.374;10.722;2022-08-03T00:30:13;1.60;;;1.50;;
62179;SDS011;48172;53.374;10.722;2022-08-03T00:32:42;1.50;;;1.40;;
62179;SDS011;48172;53.374;10.722;2022-08-03T00:35:10;2.15;;;1.48;;
62179;SDS011;48172;53.374;10.722;2022-08-03T00:37:57;1.42;;;1.27;;
62179;SDS011;48172;53.374;10.722;2022-08-03T00:40:24;1.52;;;1.42;;
62179;SDS011;48172;53.374;10.722;2022-08-03T00:42:54;1.52;;;1.30;;
62179;SDS011;48172;53.374;10.722;2022-08-03T00:45:26;2.15;;;1.60;;
62179;SDS011;48172;53.374;10.722;2022-08-03T00:47:55;2.65;;;1.58;;
62179;SDS011;48172;53.374;10.722;2022-08-03T00:50:23;1.48;;;1.38;;
62179;SDS011;48172;53.374;10.722;2022-08-03T00:52:51;1.35;;;1.23;;
62179;SDS011;48172;53.374;10.722;2022-08-03T00:55:19;1.80;;;1.50;;
62179;SDS011;48172;53.374;10.722;2022-08-03T00:57:46;1.40;;;1.30;;
62179;SDS011;48172;53.374;10.722;2022-08-03T01:00:14;1.20;;;1.10;;
62179;SDS011;48172;53.374;10.722;2022-08-03T01:02:43;1.33;;;1.13;;
62179;SDS011;48172;53.374;10.722;2022-08-03T01:05:09;1.63;;;1.40;;
62179;SDS011;48172;53.374;10.722;2022-08-03T01:16:13;1.35;;;1.20;;
62179;SDS011;48172;53.374;10.722;2022-08-03T01:18:49;1.33;;;1.20;;
62179;SDS011;48172;53.374;10.722;2022-08-03T01:31:28;1.63;;;1.30;;
62179;SDS011;48172;53.374;10.722;2022-08-03T01:34:19;1.55;;;1.30;;
62179;SDS011;48172;53.374;10.722;2022-08-03T01:36:50;1.38;;;1.20;;
62179;SDS011;48172;53.374;10.722;2022-08-03T01:39:19;2.05;;;1.58;;
62179;SDS011;48172;53.374;10.722;2022-08-03T01:41:48;1.65;;;1.50;;
62179;SDS011;48172;53.374;10.722;2022-08-03T01:44:18;1.75;;;1.30;;
62179;SDS011;48172;53.374;10.722;2022-08-03T01:46:56;1.52;;;1.42;;
62179;SDS011;48172;53.374;10.722;2022-08-03T01:49:24;1.52;;;1.40;;
62179;SDS011;48172;53.374;10.722;2022-08-03T01:51:52;2.00;;;1.40;;
62179;SDS011;48172;53.374;10.722;2022-08-03T01:54:30;1.45;;;1.20;;
62179;SDS011;48172;53.374;10.722;2022-08-03T01:57:00;1.20;;;1.10;;
62179;SDS011;48172;53.374;10.722;2022-08-03T01:59:28;2.00;;;1.50;;
62179;SDS011;48172;53.374;10.722;2022-08-03T02:01:57;1.30;;;1.20;;
62179;SDS011;48172;53.374;10.722;2022-08-03T02:04:45;1.30;;;1.20;;
62179;SDS011;48172;53.374;10.722;2022-08-03T02:07:14;1.50;;;1.38;;
62179;SDS011;48172;53.374;10.722;2022-08-03T02:09:43;1.55;;;1.40;;
62179;SDS011;48172;53.374;10.722;2022-08-03T02:12:12;1.63;;;1.52;;
62179;SDS011;48172;53.374;10.722;2022-08-03T02:14:40;1.80;;;1.33;;
62179;SDS011;48172;53.374;10.722;2022-08-03T02:17:09;1.85;;;1.50;;
62179;SDS011;48172;53.374;10.722;2022-08-03T02:19:37;1.30;;;1.10;;
62179;SDS011;48172;53.374;10.722;2022-08-03T02:22:07;1.38;;;1.27;;
62179;SDS011;48172;53.374;10.722;2022-08-03T02:24:36;1.60;;;1.30;;
62179;SDS011;48172;53.374;10.722;2022-08-03T02:27:05;1.45;;;1.30;;
62179;SDS011;48172;53.374;10.722;2022-08-03T02:29:37;1.85;;;1.30;;
62179;SDS011;48172;53.374;10.722;2022-08-03T02:32:08;1.50;;;1.40;;
62179;SDS011;48172;53.374;10.722;2022-08-03T02:34:37;1.42;;;1.30;;
62179;SDS011;48172;53.374;10.722;2022-08-03T02:37:05;1.40;;;1.30;;
62179;SDS011;48172;53.374;10.722;2022-08-03T02:39:35;1.50;;;1.38;;
62179;SDS011;48172;53.374;10.722;2022-08-03T02:42:03;1.50;;;1.40;;
62179;SDS011;48172;53.374;10.722;2022-08-03T02:44:31;1.27;;;1.15;;
62179;SDS011;48172;53.374;10.722;2022-08-03T02:47:02;1.52;;;1.25;;
62179;SDS011;48172;53.374;10.722;2022-08-03T02:49:33;1.40;;;1.30;;
62179;SDS011;48172;53.374;10.722;2022-08-03T02:52:17;2.20;;;1.80;;
62179;SDS011;48172;53.374;10.722;2022-08-03T02:54:47;1.33;;;1.23;;
62179;SDS011;48172;53.374;10.722;2022-08-03T02:57:16;1.50;;;1.35;;
62179;SDS011;48172;53.374;10.722;2022-08-03T02:59:44;1.30;;;1.20;;
62179;SDS011;48172;53.374;10.722;2022-08-03T03:02:12;1.20;;;1.10;;
62179;SDS011;48172;53.374;10.722;2022-08-03T03:04:41;1.30;;;1.20;;
62179;SDS011;48172;53.374;10.722;2022-08-03T03:07:28;1.60;;;1.30;;
62179;SDS011;48172;53.374;10.722;2022-08-03T03:10:05;1.40;;;1.30;;
62179;SDS011;48172;53.374;10.722;2022-08-03T03:12:34;1.30;;;1.20;;
62179;SDS011;48172;53.374;10.722;2022-08-03T03:15:03;1.30;;;1.20;;
62179;SDS011;48172;53.374;10.722;2022-08-03T03:17:30;1.30;;;1.20;;
62179;SDS011;48172;53.374;10.722;2022-08-03T03:19:58;1.50;;;1.40;;
62179;SDS011;48172;53.374;10.722;2022-08-03T03:22:26;1.30;;;1.20;;
62179;SDS011;48172;53.374;10.722;2022-08-03T03:24:53;1.20;;;1.10;;
62179;SDS011;48172;53.374;10.722;2022-08-03T03:27:21;1.77;;;1.27;;
62179;SDS011;48172;53.374;10.722;2022-08-03T03:29:48;1.25;;;1.15;;
62179;SDS011;48172;53.374;10.722;2022-08-03T03:32:15;1.50;;;1.40;;
62179;SDS011;48172;53.374;10.722;2022-08-03T03:34:42;1.63;;;1.42;;
62179;SDS011;48172;53.374;10.722;2022-08-03T03:37:09;1.30;;;1.20;;
62179;SDS011;48172;53.374;10.722;2022-08-03T03:39:36;1.48;;;1.38;;
62179;SDS011;48172;53.374;10.722;2022-08-03T03:42:03;1.30;;;1.20;;
62179;SDS011;48172;53.374;10.722;2022-08-03T03:44:30;1.30;;;1.20;;
62179;SDS011;48172;53.374;10.722;2022-08-03T03:46:57;1.60;;;1.50;;
62179;SDS011;48172;53.374;10.722;2022-08-03T03:49:23;1.40;;;1.30;;
62179;SDS011;48172;53.374;10.722;2022-08-03T03:51:51;1.50;;;1.30;;
62179;SDS011;48172;53.374;10.722;2022-08-03T03:54:19;1.67;;;1.30;;
62179;SDS011;48172;53.374;10.722;2022-08-03T03:56:46;1.27;;;1.17;;
62179;SDS011;48172;53.374;10.722;2022-08-03T03:59:13;1.67;;;1.55;;
62179;SDS011;48172;53.374;10.722;2022-08-03T04:01:39;1.48;;;1.38;;
62179;SDS011;48172;53.374;10.722;2022-08-03T04:04:06;1.30;;;1.20;;
62179;SDS011;48172;53.374;10.722;2022-08-03T04:06:51;1.98;;;1.42;;
62179;SDS011;48172;53.374;10.722;2022-08-03T04:09:36;1.60;;;1.30;;
62179;SDS011;48172;53.374;10.722;2022-08-03T04:12:39;1.98;;;1.33;;
62179;SDS011;48172;53.374;10.722;2022-08-03T04:15:16;1.38;;;1.27;;
62179;SDS011;48172;53.374;10.722;2022-08-03T04:17:46;2.17;;;1.52;;
62179;SDS011;48172;53.374;10.722;2022-08-03T04:20:16;1.88;;;1.52;;
62179;SDS011;48172;53.374;10.722;2022-08-03T04:22:46;1.50;;;1.40;;
62179;SDS011;48172;53.374;10.722;2022-08-03T04:25:17;1.42;;;1.33;;
62179;SDS011;48172;53.374;10.722;2022-08-03T04:27:46;1.10;;;1.00;;
62179;SDS011;48172;53.374;10.722;2022-08-03T04:30:35;1.40;;;1.30;;
62179;SDS011;48172;53.374;10.722;2022-08-03T04:33:03;1.30;;;1.20;;
62179;SDS011;48172;53.374;10.722;2022-08-03T04:35:31;1.40;;;1.30;;
62179;SDS011;48172;53.374;10.722;2022-08-03T04:38:19;1.30;;;1.20;;
62179;SDS011;48172;53.374;10.722;2022-08-03T04:40:48;1.52;;;1.42;;
62179;SDS011;48172;53.374;10.722;2022-08-03T04:43:15;2.10;;;1.50;;
62179;SDS011;48172;53.374;10.722;2022-08-03T04:45:45;1.40;;;1.30;;
62179;SDS011;48172;53.374;10.722;2022-08-03T04:48:13;1.55;;;1.30;;
62179;SDS011;48172;53.374;10.722;2022-08-03T04:50:41;1.40;;;1.30;;
62179;SDS011;48172;53.374;10.722;2022-08-03T04:53:08;1.58;;;1.40;;
62179;SDS011;48172;53.374;10.722;2022-08-03T04:55:34;1.30;;;1.20;;
62179;SDS011;48172;53.374;10.722;2022-08-03T04:58:02;1.42;;;1.23;;
62179;SDS011;48172;53.374;10.722;2022-08-03T05:00:29;1.35;;;1.25;;
62179;SDS011;48172;53.374;10.722;2022-08-03T05:02:56;1.48;;;1.30;;
62179;SDS011;48172;53.374;10.722;2022-08-03T05:05:22;1.40;;;1.30;;
62179;SDS011;48172;53.374;10.722;2022-08-03T05:07:49;4.47;;;2.00;;
62179;SDS011;48172;53.374;10.722;2022-08-03T05:10:16;4.85;;;2.13;;
62179;SDS011;48172;53.374;10.722;2022-08-03T05:12:46;5.32;;;3.30;;
62179;SDS011;48172;53.374;10.722;2022-08-03T05:15:13;9.18;;;3.40;;
62179;SDS011;48172;53.374;10.722;2022-08-03T05:17:40;8.68;;;3.53;;
62179;SDS011;48172;53.374;10.722;2022-08-03T05:20:07;6.93;;;3.53;;
62179;SDS011;48172;53.374;10.722;2022-08-03T05:22:34;7.85;;;3.70;;
62179;SDS011;48172;53.374;10.722;2022-08-03T05:25:00;6.82;;;3.78;;
62179;SDS011;48172;53.374;10.722;2022-08-03T05:27:27;8.07;;;3.97;;
62179;SDS011;48172;53.374;10.722;2022-08-03T05:29:54;9.95;;;4.53;;
62179;SDS011;48172;53.374;10.722;2022-08-03T05:32:41;7.30;;;4.93;;
62179;SDS011;48172;53.374;10.722;2022-08-03T05:35:07;8.02;;;5.10;;
62179;SDS011;48172;53.374;10.722;2022-08-03T05:37:54;9.85;;;6.10;;
62179;SDS011;48172;53.374;10.722;2022-08-03T05:40:21;11.00;;;6.00;;
62179;SDS011;48172;53.374;10.722;2022-08-03T05:42:47;8.80;;;6.10;;
62179;SDS011;48172;53.374;10.722;2022-08-03T05:45:14;41.42;;;37.45;;
62179;SDS011;48172;53.374;10.722;2022-08-03T05:47:43;52.17;;;47.65;;
62179;SDS011;48172;53.374;10.722;2022-08-03T05:50:11;90.15;;;81.97;;
62179;SDS011;48172;53.374;10.722;2022-08-03T05:52:39;115.80;;;104.72;;
62179;SDS011;48172;53.374;10.722;2022-08-03T05:55:06;143.45;;;128.90;;
62179;SDS011;48172;53.374;10.722;2022-08-03T05:57:34;157.93;;;141.80;;
62179;SDS011;48172;53.374;10.722;2022-08-03T06:00:01;114.70;;;103.32;;
62179;SDS011;48172;53.374;10.722;2022-08-03T06:02:32;178.57;;;159.43;;
62179;SDS011;48172;53.374;10.722;2022-08-03T06:04:59;181.07;;;162.15;;
62179;SDS011;48172;53.374;10.722;2022-08-03T06:07:25;154.38;;;138.25;;
62179;SDS011;48172;53.374;10.722;2022-08-03T06:09:53;153.77;;;137.50;;
62179;SDS011;48172;53.374;10.722;2022-08-03T06:12:43;125.32;;;112.85;;
62179;SDS011;48172;53.374;10.722;2022-08-03T06:15:15;114.93;;;103.40;;
62179;SDS011;48172;53.374;10.722;2022-08-03T06:17:46;104.57;;;94.32;;
62179;SDS011;48172;53.374;10.722;2022-08-03T06:20:20;122.75;;;110.30;;
62179;SDS011;48172;53.374;10.722;2022-08-03T06:22:52;172.18;;;153.70;;
62179;SDS011;48172;53.374;10.722;2022-08-03T06:25:26;185.32;;;165.77;;
62179;SDS011;48172;53.374;10.722;2022-08-03T06:27:52;160.05;;;143.25;;
62179;SDS011;48172;53.374;10.722;2022-08-03T06:30:19;107.88;;;97.32;;
62179;SDS011;48172;53.374;10.722;2022-08-03T06:32:46;107.53;;;96.82;;
62179;SDS011;48172;53.374;10.722;2022-08-03T06:35:17;97.15;;;87.47;;
62179;SDS011;48172;53.374;10.722;2022-08-03T06:37:44;88.70;;;80.03;;
62179;SDS011;48172;53.374;10.722;2022-08-03T06:40:15;83.22;;;75.13;;
62179;SDS011;48172;53.374;10.722;2022-08-03T06:42:49;78.22;;;70.65;;
62179;SDS011;48172;53.374;10.722;2022-08-03T06:45:16;71.72;;;64.53;;
62179;SDS011;48172;53.374;10.722;2022-08-03T06:47:43;66.43;;;59.97;;
62179;SDS011;48172;53.374;10.722;2022-08-03T06:50:09;62.88;;;56.70;;
62179;SDS011;48172;53.374;10.722;2022-08-03T06:52:41;59.90;;;54.10;;
62179;SDS011;48172;53.374;10.722;2022-08-03T06:55:08;57.03;;;51.45;;
62179;SDS011;48172;53.374;10.722;2022-08-03T06:57:34;51.95;;;46.88;;
62179;SDS011;48172;53.374;10.722;2022-08-03T07:00:01;50.53;;;45.67;;
62179;SDS011;48172;53.374;10.722;2022-08-03T07:02:36;46.22;;;41.72;;
62179;SDS011;48172;53.374;10.722;2022-08-03T07:05:05;43.88;;;39.88;;
62179;SDS011;48172;53.374;10.722;2022-08-03T07:07:33;40.22;;;36.55;;
62179;SDS011;48172;53.374;10.722;2022-08-03T07:09:59;39.13;;;35.38;;
62179;SDS011;48172;53.374;10.722;2022-08-03T07:12:27;37.17;;;33.70;;
62179;SDS011;48172;53.374;10.722;2022-08-03T07:14:55;34.40;;;31.30;;
62179;SDS011;48172;53.374;10.722;2022-08-03T07:17:28;32.00;;;29.20;;
62179;SDS011;48172;53.374;10.722;2022-08-03T07:19:55;30.88;;;27.95;;
62179;SDS011;48172;53.374;10.722;2022-08-03T07:22:22;30.73;;;27.63;;
62179;SDS011;48172;53.374;10.722;2022-08-03T07:24:48;27.90;;;25.30;;
62179;SDS011;48172;53.374;10.722;2022-08-03T07:27:15;27.20;;;24.75;;
62179;SDS011;48172;53.374;10.722;2022-08-03T07:29:42;25.90;;;23.40;;
62179;SDS011;48172;53.374;10.722;2022-08-03T07:32:08;25.27;;;22.88;;
62179;SDS011;48172;53.374;10.722;2022-08-03T07:34:35;24.70;;;22.30;;
62179;SDS011;48172;53.374;10.722;2022-08-03T07:37:01;24.75;;;22.35;;
62179;SDS011;48172;53.374;10.722;2022-08-03T07:39:28;61.17;;;55.58;;
62179;SDS011;48172;53.374;10.722;2022-08-03T07:41:54;68.43;;;62.35;;
62179;SDS011;48172;53.374;10.722;2022-08-03T07:44:21;38.22;;;34.72;;
62179;SDS011;48172;53.374;10.722;2022-08-03T07:46:48;86.28;;;78.53;;
62179;SDS011;48172;53.374;10.722;2022-08-03T07:49:17;107.90;;;98.13;;
62179;SDS011;48172;53.374;10.722;2022-08-03T07:51:43;127.03;;;115.22;;
62179;SDS011;48172;53.374;10.722;2022-08-03T07:56:38;71.47;;;65.00;;
62179;SDS011;48172;53.374;10.722;2022-08-03T07:59:04;56.28;;;51.17;;
62179;SDS011;48172;53.374;10.722;2022-08-03T08:01:31;52.63;;;47.67;;
62179;SDS011;48172;53.374;10.722;2022-08-03T08:04:01;51.25;;;46.75;;
62179;SDS011;48172;53.374;10.722;2022-08-03T08:06:27;48.33;;;43.92;;
62179;SDS011;48172;53.374;10.722;2022-08-03T08:08:54;44.05;;;40.17;;
62179;SDS011;48172;53.374;10.722;2022-08-03T08:11:24;41.03;;;37.42;;
62179;SDS011;48172;53.374;10.722;2022-08-03T08:13:51;38.03;;;34.55;;
62179;SDS011;48172;53.374;10.722;2022-08-03T08:16:17;37.13;;;33.70;;
62179;SDS011;48172;53.374;10.722;2022-08-03T08:18:43;34.85;;;31.83;;
62179;SDS011;48172;53.374;10.722;2022-08-03T08:21:10;32.97;;;29.88;;
62179;SDS011;48172;53.374;10.722;2022-08-03T08:23:37;31.23;;;28.50;;
62179;SDS011;48172;53.374;10.722;2022-08-03T08:26:10;30.08;;;27.45;;
62179;SDS011;48172;53.374;10.722;2022-08-03T08:28:37;27.38;;;25.02;;
62179;SDS011;48172;53.374;10.722;2022-08-03T08:31:04;26.27;;;24.08;;
62179;SDS011;48172;53.374;10.722;2022-08-03T08:33:30;26.25;;;24.02;;
62179;SDS011;48172;53.374;10.722;2022-08-03T08:36:17;23.77;;;21.48;;
62179;SDS011;48172;53.374;10.722;2022-08-03T08:38:44;22.58;;;20.45;;
62179;SDS011;48172;53.374;10.722;2022-08-03T08:41:11;20.15;;;18.45;;
62179;SDS011;48172;53.374;10.722;2022-08-03T08:43:39;20.25;;;18.65;;
62179;SDS011;48172;53.374;10.722;2022-08-03T08:46:07;20.00;;;18.05;;
62179;SDS011;48172;53.374;10.722;2022-08-03T08:48:39;18.90;;;17.23;;
62179;SDS011;48172;53.374;10.722;2022-08-03T08:51:07;16.58;;;14.98;;
62179;SDS011;48172;53.374;10.722;2022-08-03T08:53:36;15.48;;;14.07;;
62179;SDS011;48172;53.374;10.722;2022-08-03T08:56:03;15.68;;;14.38;;
62179;SDS011;48172;53.374;10.722;2022-08-03T08:58:33;13.68;;;12.32;;
62179;SDS011;48172;53.374;10.722;2022-08-03T09:01:03;13.07;;;11.85;;
62179;SDS011;48172;53.374;10.722;2022-08-03T09:03:32;11.38;;;10.38;;
62179;SDS011;48172;53.374;10.722;2022-08-03T09:05:59;11.45;;;10.45;;
62179;SDS011;48172;53.374;10.722;2022-08-03T09:08:28;11.15;;;10.10;;
62179;SDS011;48172;53.374;10.722;2022-08-03T09:10:55;9.88;;;9.05;;
62179;SDS011;48172;53.374;10.722;2022-08-03T09:13:22;9.32;;;8.52;;
62179;SDS011;48172;53.374;10.722;2022-08-03T09:16:07;9.70;;;8.48;;
62179;SDS011;48172;53.374;10.722;2022-08-03T09:18:41;8.80;;;8.05;;
62179;SDS011;48172;53.374;10.722;2022-08-03T09:24:00;7.80;;;7.00;;
62179;SDS011;48172;53.374;10.722;2022-08-03T09:26:32;7.00;;;6.30;;
62179;SDS011;48172;53.374;10.722;2022-08-03T09:29:04;6.63;;;6.03;;
62179;SDS011;48172;53.374;10.722;2022-08-03T09:31:40;6.35;;;5.75;;
62179;SDS011;48172;53.374;10.722;2022-08-03T09:34:13;6.65;;;5.90;;
62179;SDS011;48172;53.374;10.722;2022-08-03T09:36:43;6.03;;;5.50;;
62179;SDS011;48172;53.374;10.722;2022-08-03T09:39:12;5.15;;;4.70;;
62179;SDS011;48172;53.374;10.722;2022-08-03T09:41:40;5.53;;;4.70;;
62179;SDS011;48172;53.374;10.722;2022-08-03T09:44:09;4.85;;;4.40;;
62179;SDS011;48172;53.374;10.722;2022-08-03T09:46:54;4.57;;;4.18;;
62179;SDS011;48172;53.374;10.722;2022-08-03T09:49:22;5.25;;;3.88;;
62179;SDS011;48172;53.374;10.722;2022-08-03T09:51:50;4.70;;;4.05;;
62179;SDS011;48172;53.374;10.722;2022-08-03T09:54:37;6.28;;;4.32;;
62179;SDS011;48172;53.374;10.722;2022-08-03T09:57:04;5.15;;;3.80;;
62179;SDS011;48172;53.374;10.722;2022-08-03T09:59:31;3.70;;;3.40;;
62179;SDS011;48172;53.374;10.722;2022-08-03T10:01:59;3.35;;;3.05;;
62179;SDS011;48172;53.374;10.722;2022-08-03T10:04:27;3.47;;;3.17;;
62179;SDS011;48172;53.374;10.722;2022-08-03T10:07:07;4.05;;;3.50;;
62179;SDS011;48172;53.374;10.722;2022-08-03T10:09:35;3.63;;;3.22;;
62179;SDS011;48172;53.374;10.722;2022-08-03T10:12:09;4.20;;;2.78;;
62179;SDS011;48172;53.374;10.722;2022-08-03T10:14:39;3.30;;;3.00;;
62179;SDS011;48172;53.374;10.722;2022-08-03T10:17:10;3.83;;;2.83;;
62179;SDS011;48172;53.374;10.722;2022-08-03T10:19:37;3.42;;;2.72;;
62179;SDS011;48172;53.374;10.722;2022-08-03T10:22:05;2.67;;;2.47;;
62179;SDS011;48172;53.374;10.722;2022-08-03T10:24:35;2.83;;;2.60;;
62179;SDS011;48172;53.374;10.722;2022-08-03T10:27:05;2.90;;;2.60;;
62179;SDS011;48172;53.374;10.722;2022-08-03T10:29:36;3.17;;;2.72;;
62179;SDS011;48172;53.374;10.722;2022-08-03T10:32:07;2.60;;;2.40;;
62179;SDS011;48172;53.374;10.722;2022-08-03T10:34:39;2.78;;;2.55;;
62179;SDS011;48172;53.374;10.722;2022-08-03T10:37:10;3.60;;;2.28;;
62179;SDS011;48172;53.374;10.722;2022-08-03T10:39:39;3.42;;;2.28;;
62179;SDS011;48172;53.374;10.722;2022-08-03T10:42:25;3.17;;;2.30;;
62179;SDS011;48172;53.374;10.722;2022-08-03T10:45:17;2.40;;;1.92;;
62179;SDS011;48172;53.374;10.722;2022-08-03T10:47:43;4.85;;;2.45;;
62179;SDS011;48172;53.374;10.722;2022-08-03T10:50:11;3.20;;;2.22;;
62179;SDS011;48172;53.374;10.722;2022-08-03T11:04:24;2.95;;;2.15;;
62179;SDS011;48172;53.374;10.722;2022-08-03T11:09:50;2.40;;;2.10;;
62179;SDS011;48172;53.374;10.722;2022-08-03T11:14:57;2.60;;;1.88;;
62179;SDS011;48172;53.374;10.722;2022-08-03T11:17:29;2.60;;;1.92;;
62179;SDS011;48172;53.374;10.722;2022-08-03T11:19:58;2.90;;;1.95;;
62179;SDS011;48172;53.374;10.722;2022-08-03T11:22:24;1.80;;;1.70;;
62179;SDS011;48172;53.374;10.722;2022-08-03T11:25:11;1.70;;;1.60;;
62179;SDS011;48172;53.374;10.722;2022-08-03T11:34:09;3.72;;;1.65;;
62179;SDS011;48172;53.374;10.722;2022-08-03T11:39:44;2.97;;;1.70;;
62179;SDS011;48172;53.374;10.722;2022-08-03T11:44:51;2.25;;;1.70;;
62179;SDS011;48172;53.374;10.722;2022-08-03T11:47:19;1.73;;;1.60;;
62179;SDS011;48172;53.374;10.722;2022-08-03T11:49:47;2.70;;;1.88;;
62179;SDS011;48172;53.374;10.722;2022-08-03T11:52:16;2.20;;;1.73;;
62179;SDS011;48172;53.374;10.722;2022-08-03T11:54:53;1.70;;;1.60;;
62179;SDS011;48172;53.374;10.722;2022-08-03T11:57:33;2.03;;;1.42;;
62179;SDS011;48172;53.374;10.722;2022-08-03T12:00:21;2.85;;;1.58;;
62179;SDS011;48172;53.374;10.722;2022-08-03T12:02:54;8.48;;;4.13;;
62179;SDS011;48172;53.374;10.722;2022-08-03T12:05:31;11.85;;;3.72;;
62179;SDS011;48172;53.374;10.722;2022-08-03T12:08:01;9.43;;;3.80;;
62179;SDS011;48172;53.374;10.722;2022-08-03T12:10:32;7.95;;;3.67;;
62179;SDS011;48172;53.374;10.722;2022-08-03T12:13:00;7.63;;;2.78;;
62179;SDS011;48172;53.374;10.722;2022-08-03T12:15:28;6.18;;;3.10;;
62179;SDS011;48172;53.374;10.722;2022-08-03T12:17:57;5.53;;;2.85;;
62179;SDS011;48172;53.374;10.722;2022-08-03T12:20:27;3.90;;;2.78;;
62179;SDS011;48172;53.374;10.722;2022-08-03T12:23:01;5.68;;;3.10;;
62179;SDS011;48172;53.374;10.722;2022-08-03T12:25:30;5.55;;;2.33;;
62179;SDS011;48172;53.374;10.722;2022-08-03T12:31:06;5.53;;;2.50;;
62179;SDS011;48172;53.374;10.722;2022-08-03T12:33:54;4.43;;;2.40;;
62179;SDS011;48172;53.374;10.722;2022-08-03T12:36:20;7.43;;;2.30;;
62179;SDS011;48172;53.374;10.722;2022-08-03T12:38:53;4.28;;;2.50;;
62179;SDS011;48172;53.374;10.722;2022-08-03T12:41:32;4.00;;;2.22;;
62179;SDS011;48172;53.374;10.722;2022-08-03T12:44:01;5.03;;;2.40;;
62179;SDS011;48172;53.374;10.722;2022-08-03T12:46:30;4.53;;;2.33;;
62179;SDS011;48172;53.374;10.722;2022-08-03T12:51:54;4.22;;;1.80;;
62179;SDS011;48172;53.374;10.722;2022-08-03T12:54:32;4.32;;;2.20;;
62179;SDS011;48172;53.374;10.722;2022-08-03T12:57:10;5.40;;;2.38;;
62179;SDS011;48172;53.374;10.722;2022-08-03T12:59:42;3.88;;;2.60;;
62179;SDS011;48172;53.374;10.722;2022-08-03T13:02:24;8.82;;;2.20;;
62179;SDS011;48172;53.374;10.722;2022-08-03T13:04:52;3.25;;;2.00;;
62179;SDS011;48172;53.374;10.722;2022-08-03T13:07:20;4.82;;;2.00;;
62179;SDS011;48172;53.374;10.722;2022-08-03T13:09:51;4.00;;;1.85;;
62179;SDS011;48172;53.374;10.722;2022-08-03T13:12:20;3.50;;;2.17;;
62179;SDS011;48172;53.374;10.722;2022-08-03T13:14:51;5.13;;;1.88;;
62179;SDS011;48172;53.374;10.722;2022-08-03T13:17:20;4.55;;;1.75;;
62179;SDS011;48172;53.374;10.722;2022-08-03T13:19:47;3.38;;;1.75;;
62179;SDS011;48172;53.374;10.722;2022-08-03T13:22:15;2.70;;;1.70;;
62179;SDS011;48172;53.374;10.722;2022-08-03T13:24:44;3.10;;;2.00;;
62179;SDS011;48172;53.374;10.722;2022-08-03T13:27:12;3.55;;;2.08;;
62179;SDS011;48172;53.374;10.722;2022-08-03T13:29:59;2.72;;;1.92;;
62179;SDS011;48172;53.374;10.722;2022-08-03T13:32:26;2.55;;;1.88;;
62179;SDS011;48172;53.374;10.722;2022-08-03T13:34:52;2.63;;;1.80;;
62179;SDS011;48172;53.374;10.722;2022-08-03T13:37:19;3.33;;;1.73;;
62179;SDS011;48172;53.374;10.722;2022-08-03T13:39:46;3.92;;;1.73;;
62179;SDS011;48172;53.374;10.722;2022-08-03T13:42:26;2.45;;;1.48;;
62179;SDS011;48172;53.374;10.722;2022-08-03T13:44:57;3.37;;;2.00;;
62179;SDS011;48172;53.374;10.722;2022-08-03T13:47:24;3.10;;;1.65;;
62179;SDS011;48172;53.374;10.722;2022-08-03T13:49:51;2.00;;;1.45;;
62179;SDS011;48172;53.374;10.722;2022-08-03T13:52:25;3.33;;;1.70;;
62179;SDS011;48172;53.374;10.722;2022-08-03T13:54:52;3.03;;;1.63;;
62179;SDS011;48172;53.374;10.722;2022-08-03T13:57:19;2.42;;;1.80;;
62179;SDS011;48172;53.374;10.722;2022-08-03T14:00:05;3.58;;;1.60;;
62179;SDS011;48172;53.374;10.722;2022-08-03T14:02:33;3.42;;;1.40;;
62179;SDS011;48172;53.374;10.722;2022-08-03T14:04:59;2.33;;;1.88;;
62179;SDS011;48172;53.374;10.722;2022-08-03T14:07:26;6.78;;;1.60;;
62179;SDS011;48172;53.374;10.722;2022-08-03T14:09:52;3.10;;;1.67;;
62179;SDS011;48172;53.374;10.722;2022-08-03T14:12:19;2.30;;;1.40;;
62179;SDS011;48172;53.374;10.722;2022-08-03T14:14:45;1.60;;;1.40;;
62179;SDS011;48172;53.374;10.722;2022-08-03T14:17:12;2.92;;;1.73;;
62179;SDS011;48172;53.374;10.722;2022-08-03T14:19:41;4.80;;;1.83;;
62179;SDS011;48172;53.374;10.722;2022-08-03T14:22:19;2.35;;;1.67;;
62179;SDS011;48172;53.374;10.722;2022-08-03T14:24:46;1.92;;;1.40;;
62179;SDS011;48172;53.374;10.722;2022-08-03T14:27:14;1.63;;;1.17;;
62179;SDS011;48172;53.374;10.722;2022-08-03T14:29:41;3.00;;;1.40;;
62179;SDS011;48172;53.374;10.722;2022-08-03T14:32:08;1.95;;;1.55;;
62179;SDS011;48172;53.374;10.722;2022-08-03T14:34:38;3.03;;;1.52;;
62179;SDS011;48172;53.374;10.722;2022-08-03T14:37:05;2.45;;;1.60;;
62179;SDS011;48172;53.374;10.722;2022-08-03T14:39:32;2.05;;;1.27;;
62179;SDS011;48172;53.374;10.722;2022-08-03T14:42:18;1.70;;;1.30;;
62179;SDS011;48172;53.374;10.722;2022-08-03T14:44:45;2.03;;;1.23;;
62179;SDS011;48172;53.374;10.722;2022-08-03T14:47:12;3.95;;;1.67;;
62179;SDS011;48172;53.374;10.722;2022-08-03T14:49:39;2.17;;;1.27;;
62179;SDS011;48172;53.374;10.722;2022-08-03T14:52:26;2.47;;;1.33;;
62179;SDS011;48172;53.374;10.722;2022-08-03T14:54:52;1.38;;;1.25;;
62179;SDS011;48172;53.374;10.722;2022-08-03T14:57:19;2.15;;;1.30;;
62179;SDS011;48172;53.374;10.722;2022-08-03T14:59:46;1.30;;;1.10;;
62179;SDS011;48172;53.374;10.722;2022-08-03T15:02:22;2.22;;;1.50;;
62179;SDS011;48172;53.374;10.722;2022-08-03T15:04:50;1.83;;;1.52;;
62179;SDS011;48172;53.374;10.722;2022-08-03T15:07:17;1.55;;;1.45;;
62179;SDS011;48172;53.374;10.722;2022-08-03T15:09:45;1.38;;;1.15;;
62179;SDS011;48172;53.374;10.722;2022-08-03T15:12:12;2.00;;;1.05;;
62179;SDS011;48172;53.374;10.722;2022-08-03T15:14:39;1.77;;;1.25;;
62179;SDS011;48172;53.374;10.722;2022-08-03T15:17:05;2.08;;;1.23;;
62179;SDS011;48172;53.374;10.722;2022-08-03T15:19:32;1.73;;;1.00;;
62179;SDS011;48172;53.374;10.722;2022-08-03T15:22:18;2.10;;;1.20;;
62179;SDS011;48172;53.374;10.722;2022-08-03T15:24:49;2.13;;;1.10;;
62179;SDS011;48172;53.374;10.722;2022-08-03T15:27:16;1.25;;;0.95;;
62179;SDS011;48172;53.374;10.722;2022-08-03T15:29:43;1.52;;;1.10;;
62179;SDS011;48172;53.374;10.722;2022-08-03T15:32:29;2.58;;;1.10;;
62179;SDS011;48172;53.374;10.722;2022-08-03T15:34:56;1.90;;;1.05;;
62179;SDS011;48172;53.374;10.722;2022-08-03T15:37:22;1.98;;;1.30;;
62179;SDS011;48172;53.374;10.722;2022-08-03T15:39:51;1.55;;;1.20;;
62179;SDS011;48172;53.374;10.722;2022-08-03T15:42:26;2.08;;;1.38;;